sensor_id;sensor_type;location;lat;lon;timestamp;temperature;humidity
75010;DHT22;63564;46.840;18.336;2023-04-06T00:02:39;-0.64;72.08
75010;DHT22;63564;46.840;18.336;2023-04-06T00:05:41;-0.56;69.70
75010;DHT22;63564;46.840;18.336;2023-04-06T00:08:41;-0.47;70.60
75010;DHT22;63564;46.840;18.336;2023-04-06T00:11:41;-0.30;67.36
75010;DHT22;63564;46.840;18.336;2023-04-06T00:14:42;-0.26;68.83
75010;DHT22;63564;46.840;18.336;2023-04-06T00:17:42;-0.21;67.01
75010;DHT22;63564;46.840;18.336;2023-04-06T00:20:43;-0.19;68.13
75010;DHT22;63564;46.840;18.336;2023-04-06T00:23:43;-0.21;68.04
75010;DHT22;63564;46.840;18.336;2023-04-06T00:26:43;-0.25;68.58
75010;DHT22;63564;46.840;18.336;2023-04-06T00:29:44;-0.19;67.97
75010;DHT22;63564;46.840;18.336;2023-04-06T00:32:45;-0.22;68.15
75010;DHT22;63564;46.840;18.336;2023-04-06T00:35:45;-0.29;69.54
75010;DHT22;63564;46.840;18.336;2023-04-06T00:38:45;-0.30;69.48
75010;DHT22;63564;46.840;18.336;2023-04-06T00:41:49;-0.22;68.73
75010;DHT22;63564;46.840;18.336;2023-04-06T00:44:55;-0.15;67.71
75010;DHT22;63564;46.840;18.336;2023-04-06T00:47:56;-0.12;68.42
75010;DHT22;63564;46.840;18.336;2023-04-06T00:50:57;-0.22;68.98
75010;DHT22;63564;46.840;18.336;2023-04-06T00:53:57;-0.19;68.83
75010;DHT22;63564;46.840;18.336;2023-04-06T00:56:58;-0.19;68.68
75010;DHT22;63564;46.840;18.336;2023-04-06T00:59:58;-0.22;70.24
75010;DHT22;63564;46.840;18.336;2023-04-06T01:02:59;-0.26;69.23
75010;DHT22;63564;46.840;18.336;2023-04-06T01:05:59;-0.23;68.47
75010;DHT22;63564;46.840;18.336;2023-04-06T01:09:00;-0.28;68.95
75010;DHT22;63564;46.840;18.336;2023-04-06T01:12:00;-0.21;67.79
75010;DHT22;63564;46.840;18.336;2023-04-06T01:15:01;-0.23;68.25
75010;DHT22;63564;46.840;18.336;2023-04-06T01:18:01;-0.23;68.73
75010;DHT22;63564;46.840;18.336;2023-04-06T01:21:02;-0.29;69.46
75010;DHT22;63564;46.840;18.336;2023-04-06T01:24:03;-0.32;70.09
75010;DHT22;63564;46.840;18.336;2023-04-06T01:27:03;-0.34;68.85
75010;DHT22;63564;46.840;18.336;2023-04-06T01:30:05;-0.26;68.24
75010;DHT22;63564;46.840;18.336;2023-04-06T01:33:05;-0.22;68.15
75010;DHT22;63564;46.840;18.336;2023-04-06T01:36:06;-0.29;68.19
75010;DHT22;63564;46.840;18.336;2023-04-06T01:39:06;-0.32;69.16
75010;DHT22;63564;46.840;18.336;2023-04-06T01:42:07;-0.34;68.93
75010;DHT22;63564;46.840;18.336;2023-04-06T01:45:07;-0.33;68.96
75010;DHT22;63564;46.840;18.336;2023-04-06T01:48:08;-0.41;69.52
75010;DHT22;63564;46.840;18.336;2023-04-06T01:51:08;-0.47;70.11
75010;DHT22;63564;46.840;18.336;2023-04-06T01:54:09;-0.47;68.98
75010;DHT22;63564;46.840;18.336;2023-04-06T01:57:10;-0.44;70.01
75010;DHT22;63564;46.840;18.336;2023-04-06T02:00:11;-0.46;68.98
75010;DHT22;63564;46.840;18.336;2023-04-06T02:03:12;-0.44;68.35
75010;DHT22;63564;46.840;18.336;2023-04-06T02:06:13;-0.43;68.23
75010;DHT22;63564;46.840;18.336;2023-04-06T02:09:14;-0.46;69.05
75010;DHT22;63564;46.840;18.336;2023-04-06T02:12:14;-0.52;68.69
75010;DHT22;63564;46.840;18.336;2023-04-06T02:15:15;-0.44;67.65
75010;DHT22;63564;46.840;18.336;2023-04-06T02:18:15;-0.49;68.03
75010;DHT22;63564;46.840;18.336;2023-04-06T02:21:17;-0.53;68.69
75010;DHT22;63564;46.840;18.336;2023-04-06T02:24:20;-0.66;69.55
75010;DHT22;63564;46.840;18.336;2023-04-06T02:27:20;-0.63;69.21
75010;DHT22;63564;46.840;18.336;2023-04-06T02:30:20;-0.73;69.38
75010;DHT22;63564;46.840;18.336;2023-04-06T02:33:21;-0.78;69.32
75010;DHT22;63564;46.840;18.336;2023-04-06T02:36:21;-0.76;69.22
75010;DHT22;63564;46.840;18.336;2023-04-06T02:39:22;-0.70;69.94
75010;DHT22;63564;46.840;18.336;2023-04-06T02:42:22;-0.67;68.83
75010;DHT22;63564;46.840;18.336;2023-04-06T02:45:23;-0.47;67.78
75010;DHT22;63564;46.840;18.336;2023-04-06T02:48:23;-0.40;67.58
75010;DHT22;63564;46.840;18.336;2023-04-06T02:51:23;-0.44;67.40
75010;DHT22;63564;46.840;18.336;2023-04-06T02:54:24;-0.47;67.10
75010;DHT22;63564;46.840;18.336;2023-04-06T02:57:24;-0.53;67.64
75010;DHT22;63564;46.840;18.336;2023-04-06T03:00:25;-0.54;68.00
75010;DHT22;63564;46.840;18.336;2023-04-06T03:03:26;-0.59;68.38
75010;DHT22;63564;46.840;18.336;2023-04-06T03:06:26;-0.66;68.15
75010;DHT22;63564;46.840;18.336;2023-04-06T03:09:27;-0.64;68.40
75010;DHT22;63564;46.840;18.336;2023-04-06T03:12:27;-0.71;68.69
75010;DHT22;63564;46.840;18.336;2023-04-06T03:15:28;-0.77;68.75
75010;DHT22;63564;46.840;18.336;2023-04-06T03:18:28;-0.83;69.49
75010;DHT22;63564;46.840;18.336;2023-04-06T03:21:28;-0.99;70.20
75010;DHT22;63564;46.840;18.336;2023-04-06T03:24:29;-0.99;70.46
75010;DHT22;63564;46.840;18.336;2023-04-06T03:27:29;-0.95;70.03
75010;DHT22;63564;46.840;18.336;2023-04-06T03:30:30;-0.98;69.76
75010;DHT22;63564;46.840;18.336;2023-04-06T03:33:30;-0.95;69.54
75010;DHT22;63564;46.840;18.336;2023-04-06T03:36:30;-1.09;70.43
75010;DHT22;63564;46.840;18.336;2023-04-06T03:39:31;-1.15;70.92
75010;DHT22;63564;46.840;18.336;2023-04-06T03:42:32;-1.16;71.16
75010;DHT22;63564;46.840;18.336;2023-04-06T03:45:32;-1.11;70.58
75010;DHT22;63564;46.840;18.336;2023-04-06T03:48:33;-1.18;70.79
75010;DHT22;63564;46.840;18.336;2023-04-06T03:51:33;-1.19;72.21
75010;DHT22;63564;46.840;18.336;2023-04-06T03:54:34;-1.19;71.99
75010;DHT22;63564;46.840;18.336;2023-04-06T03:57:34;-1.16;70.79
75010;DHT22;63564;46.840;18.336;2023-04-06T04:00:35;-1.20;71.85
75010;DHT22;63564;46.840;18.336;2023-04-06T04:03:35;-1.22;71.44
75010;DHT22;63564;46.840;18.336;2023-04-06T04:06:36;-1.20;72.22
75010;DHT22;63564;46.840;18.336;2023-04-06T04:09:37;-1.22;71.76
75010;DHT22;63564;46.840;18.336;2023-04-06T04:12:37;-1.22;71.18
75010;DHT22;63564;46.840;18.336;2023-04-06T04:15:37;-1.32;71.25
75010;DHT22;63564;46.840;18.336;2023-04-06T04:18:38;-1.33;71.67
75010;DHT22;63564;46.840;18.336;2023-04-06T04:21:45;-1.46;72.52
75010;DHT22;63564;46.840;18.336;2023-04-06T04:24:46;-1.45;73.36
75010;DHT22;63564;46.840;18.336;2023-04-06T04:27:46;-1.43;72.63
75010;DHT22;63564;46.840;18.336;2023-04-06T04:30:47;-1.45;73.14
75010;DHT22;63564;46.840;18.336;2023-04-06T04:33:47;-1.47;76.84
75010;DHT22;63564;46.840;18.336;2023-04-06T04:36:47;-1.85;79.46
75010;DHT22;63564;46.840;18.336;2023-04-06T04:39:48;-1.91;77.33
75010;DHT22;63564;46.840;18.336;2023-04-06T04:42:48;-1.77;76.60
75010;DHT22;63564;46.840;18.336;2023-04-06T04:45:51;-1.88;75.65
75010;DHT22;63564;46.840;18.336;2023-04-06T04:48:52;-1.88;75.43
75010;DHT22;63564;46.840;18.336;2023-04-06T04:51:52;-1.83;75.39
75010;DHT22;63564;46.840;18.336;2023-04-06T04:54:53;-1.81;75.92
75010;DHT22;63564;46.840;18.336;2023-04-06T04:57:53;-1.80;76.32
75010;DHT22;63564;46.840;18.336;2023-04-06T05:00:54;-1.54;74.90
75010;DHT22;63564;46.840;18.336;2023-04-06T05:03:54;-1.46;74.03
75010;DHT22;63564;46.840;18.336;2023-04-06T05:07:08;-1.40;75.48
75010;DHT22;63564;46.840;18.336;2023-04-06T05:10:09;-1.42;74.45
75010;DHT22;63564;46.840;18.336;2023-04-06T05:13:10;-1.50;74.01
75010;DHT22;63564;46.840;18.336;2023-04-06T05:16:11;-1.46;73.51
75010;DHT22;63564;46.840;18.336;2023-04-06T05:19:11;-1.31;73.84
75010;DHT22;63564;46.840;18.336;2023-04-06T05:22:11;-1.26;77.43
75010;DHT22;63564;46.840;18.336;2023-04-06T05:25:14;-1.22;77.96
75010;DHT22;63564;46.840;18.336;2023-04-06T05:28:15;-1.33;77.19
75010;DHT22;63564;46.840;18.336;2023-04-06T05:31:16;-1.35;76.38
75010;DHT22;63564;46.840;18.336;2023-04-06T05:34:16;-1.36;76.81
75010;DHT22;63564;46.840;18.336;2023-04-06T05:37:17;-1.39;76.65
75010;DHT22;63564;46.840;18.336;2023-04-06T05:40:17;-1.33;75.45
75010;DHT22;63564;46.840;18.336;2023-04-06T05:43:17;-1.04;74.50
75010;DHT22;63564;46.840;18.336;2023-04-06T05:46:18;-0.98;73.80
75010;DHT22;63564;46.840;18.336;2023-04-06T05:49:18;-0.87;73.05
75010;DHT22;63564;46.840;18.336;2023-04-06T05:52:19;-0.74;73.84
75010;DHT22;63564;46.840;18.336;2023-04-06T05:55:19;-0.74;74.32
75010;DHT22;63564;46.840;18.336;2023-04-06T05:58:20;-0.84;74.00
75010;DHT22;63564;46.840;18.336;2023-04-06T06:01:20;-0.91;74.28
75010;DHT22;63564;46.840;18.336;2023-04-06T06:04:20;-0.59;74.17
75010;DHT22;63564;46.840;18.336;2023-04-06T06:07:21;-0.36;73.14
75010;DHT22;63564;46.840;18.336;2023-04-06T06:10:21;-0.34;73.73
75010;DHT22;63564;46.840;18.336;2023-04-06T06:13:23;-0.19;72.26
75010;DHT22;63564;46.840;18.336;2023-04-06T06:16:23;-0.02;72.67
75010;DHT22;63564;46.840;18.336;2023-04-06T06:19:24;0.06;72.65
75010;DHT22;63564;46.840;18.336;2023-04-06T06:22:24;0.23;72.41
75010;DHT22;63564;46.840;18.336;2023-04-06T06:25:25;0.42;71.43
75010;DHT22;63564;46.840;18.336;2023-04-06T06:28:25;0.50;70.06
75010;DHT22;63564;46.840;18.336;2023-04-06T06:31:26;0.70;69.27
75010;DHT22;63564;46.840;18.336;2023-04-06T06:34:26;1.06;68.47
75010;DHT22;63564;46.840;18.336;2023-04-06T06:37:27;1.39;65.58
75010;DHT22;63564;46.840;18.336;2023-04-06T06:40:27;1.66;65.08
75010;DHT22;63564;46.840;18.336;2023-04-06T06:43:28;1.95;64.41
75010;DHT22;63564;46.840;18.336;2023-04-06T06:46:28;2.24;62.53
75010;DHT22;63564;46.840;18.336;2023-04-06T06:49:28;2.49;61.47
75010;DHT22;63564;46.840;18.336;2023-04-06T06:52:29;2.72;58.97
75010;DHT22;63564;46.840;18.336;2023-04-06T06:55:29;2.77;57.55
75010;DHT22;63564;46.840;18.336;2023-04-06T06:58:30;3.00;58.63
75010;DHT22;63564;46.840;18.336;2023-04-06T07:01:32;3.16;57.12
75010;DHT22;63564;46.840;18.336;2023-04-06T07:04:33;3.21;55.35
75010;DHT22;63564;46.840;18.336;2023-04-06T07:07:34;3.33;55.74
75010;DHT22;63564;46.840;18.336;2023-04-06T07:10:34;3.44;55.41
75010;DHT22;63564;46.840;18.336;2023-04-06T07:13:35;3.59;54.11
75010;DHT22;63564;46.840;18.336;2023-04-06T07:16:35;3.63;52.95
75010;DHT22;63564;46.840;18.336;2023-04-06T07:19:36;3.74;52.61
75010;DHT22;63564;46.840;18.336;2023-04-06T07:22:37;3.93;52.51
75010;DHT22;63564;46.840;18.336;2023-04-06T07:25:37;4.02;54.65
75010;DHT22;63564;46.840;18.336;2023-04-06T07:28:37;4.25;51.18
75010;DHT22;63564;46.840;18.336;2023-04-06T07:31:38;4.45;51.93
75010;DHT22;63564;46.840;18.336;2023-04-06T07:34:38;4.63;51.06
75010;DHT22;63564;46.840;18.336;2023-04-06T07:37:39;4.84;49.58
75010;DHT22;63564;46.840;18.336;2023-04-06T07:40:40;4.94;49.42
75010;DHT22;63564;46.840;18.336;2023-04-06T07:43:40;5.11;48.32
75010;DHT22;63564;46.840;18.336;2023-04-06T07:46:40;5.17;48.04
75010;DHT22;63564;46.840;18.336;2023-04-06T07:49:41;5.39;48.70
75010;DHT22;63564;46.840;18.336;2023-04-06T07:52:41;5.59;46.85
75010;DHT22;63564;46.840;18.336;2023-04-06T07:55:42;5.77;46.96
75010;DHT22;63564;46.840;18.336;2023-04-06T07:58:42;5.63;46.99
75010;DHT22;63564;46.840;18.336;2023-04-06T08:01:43;5.67;47.92
75010;DHT22;63564;46.840;18.336;2023-04-06T08:04:43;5.62;48.22
75010;DHT22;63564;46.840;18.336;2023-04-06T08:07:44;5.65;47.42
75010;DHT22;63564;46.840;18.336;2023-04-06T08:10:45;5.66;45.57
75010;DHT22;63564;46.840;18.336;2023-04-06T08:13:45;5.56;46.40
75010;DHT22;63564;46.840;18.336;2023-04-06T08:16:46;6.10;47.66
75010;DHT22;63564;46.840;18.336;2023-04-06T08:19:46;6.42;46.24
75010;DHT22;63564;46.840;18.336;2023-04-06T08:22:46;6.59;44.94
75010;DHT22;63564;46.840;18.336;2023-04-06T08:25:47;6.56;44.00
75010;DHT22;63564;46.840;18.336;2023-04-06T08:28:47;6.65;45.22
75010;DHT22;63564;46.840;18.336;2023-04-06T08:31:48;6.50;44.51
75010;DHT22;63564;46.840;18.336;2023-04-06T08:34:48;6.71;46.36
75010;DHT22;63564;46.840;18.336;2023-04-06T08:37:48;6.90;44.25
75010;DHT22;63564;46.840;18.336;2023-04-06T08:40:49;7.04;43.80
75010;DHT22;63564;46.840;18.336;2023-04-06T08:43:57;6.82;41.73
75010;DHT22;63564;46.840;18.336;2023-04-06T08:46:58;6.79;42.72
75010;DHT22;63564;46.840;18.336;2023-04-06T08:50:03;6.94;42.50
75010;DHT22;63564;46.840;18.336;2023-04-06T08:53:05;7.03;43.01
75010;DHT22;63564;46.840;18.336;2023-04-06T08:56:07;7.22;42.72
75010;DHT22;63564;46.840;18.336;2023-04-06T08:59:09;7.30;42.45
75010;DHT22;63564;46.840;18.336;2023-04-06T09:02:16;7.35;40.70
75010;DHT22;63564;46.840;18.336;2023-04-06T09:05:17;7.15;41.15
75010;DHT22;63564;46.840;18.336;2023-04-06T09:08:17;7.62;42.28
75010;DHT22;63564;46.840;18.336;2023-04-06T09:11:19;7.54;42.90
75010;DHT22;63564;46.840;18.336;2023-04-06T09:14:37;7.54;41.47
75010;DHT22;63564;46.840;18.336;2023-04-06T09:17:37;7.61;43.30
75010;DHT22;63564;46.840;18.336;2023-04-06T09:20:38;7.79;43.82
75010;DHT22;63564;46.840;18.336;2023-04-06T09:23:39;7.51;40.04
75010;DHT22;63564;46.840;18.336;2023-04-06T09:26:46;7.90;39.48
75010;DHT22;63564;46.840;18.336;2023-04-06T09:29:47;8.15;40.60
75010;DHT22;63564;46.840;18.336;2023-04-06T09:32:52;8.10;39.49
75010;DHT22;63564;46.840;18.336;2023-04-06T09:35:53;8.28;39.84
75010;DHT22;63564;46.840;18.336;2023-04-06T09:39:02;8.33;39.74
75010;DHT22;63564;46.840;18.336;2023-04-06T09:42:03;8.35;38.15
75010;DHT22;63564;46.840;18.336;2023-04-06T09:45:04;8.51;38.16
75010;DHT22;63564;46.840;18.336;2023-04-06T09:48:04;8.93;38.45
75010;DHT22;63564;46.840;18.336;2023-04-06T09:51:06;8.99;39.29
75010;DHT22;63564;46.840;18.336;2023-04-06T09:54:08;9.13;37.56
75010;DHT22;63564;46.840;18.336;2023-04-06T10:00:22;8.87;38.78
75010;DHT22;63564;46.840;18.336;2023-04-06T10:06:38;9.11;36.57
75010;DHT22;63564;46.840;18.336;2023-04-06T10:09:39;9.63;39.34
75010;DHT22;63564;46.840;18.336;2023-04-06T10:12:40;9.45;36.86
75010;DHT22;63564;46.840;18.336;2023-04-06T10:15:41;9.51;36.53
75010;DHT22;63564;46.840;18.336;2023-04-06T10:19:06;9.62;36.49
75010;DHT22;63564;46.840;18.336;2023-04-06T10:22:09;9.49;36.92
75010;DHT22;63564;46.840;18.336;2023-04-06T10:25:12;9.66;38.13
75010;DHT22;63564;46.840;18.336;2023-04-06T10:28:12;9.86;35.71
75010;DHT22;63564;46.840;18.336;2023-04-06T10:31:13;10.03;36.48
75010;DHT22;63564;46.840;18.336;2023-04-06T10:34:14;9.66;37.21
75010;DHT22;63564;46.840;18.336;2023-04-06T10:37:15;10.41;37.62
75010;DHT22;63564;46.840;18.336;2023-04-06T10:40:25;10.09;35.58
75010;DHT22;63564;46.840;18.336;2023-04-06T10:43:25;9.76;35.41
75010;DHT22;63564;46.840;18.336;2023-04-06T10:46:28;10.25;35.96
75010;DHT22;63564;46.840;18.336;2023-04-06T10:49:28;9.86;35.41
75010;DHT22;63564;46.840;18.336;2023-04-06T10:52:29;9.86;35.50
75010;DHT22;63564;46.840;18.336;2023-04-06T10:55:30;9.71;35.34
75010;DHT22;63564;46.840;18.336;2023-04-06T10:58:31;9.42;37.10
75010;DHT22;63564;46.840;18.336;2023-04-06T11:01:31;9.58;35.80
75010;DHT22;63564;46.840;18.336;2023-04-06T11:04:32;10.02;35.62
75010;DHT22;63564;46.840;18.336;2023-04-06T11:07:32;9.86;36.66
75010;DHT22;63564;46.840;18.336;2023-04-06T11:10:33;9.90;35.16
75010;DHT22;63564;46.840;18.336;2023-04-06T11:13:56;10.13;35.31
75010;DHT22;63564;46.840;18.336;2023-04-06T11:16:57;10.25;35.32
75010;DHT22;63564;46.840;18.336;2023-04-06T11:19:57;10.34;35.82
75010;DHT22;63564;46.840;18.336;2023-04-06T11:22:58;10.64;35.65
75010;DHT22;63564;46.840;18.336;2023-04-06T11:26:00;10.71;35.21
75010;DHT22;63564;46.840;18.336;2023-04-06T11:29:00;10.61;33.76
75010;DHT22;63564;46.840;18.336;2023-04-06T11:32:02;10.34;35.40
75010;DHT22;63564;46.840;18.336;2023-04-06T11:35:03;10.52;34.40
75010;DHT22;63564;46.840;18.336;2023-04-06T11:38:03;10.67;35.36
75010;DHT22;63564;46.840;18.336;2023-04-06T11:41:04;11.00;33.94
75010;DHT22;63564;46.840;18.336;2023-04-06T11:44:05;11.51;34.27
75010;DHT22;63564;46.840;18.336;2023-04-06T11:47:07;11.60;33.40
75010;DHT22;63564;46.840;18.336;2023-04-06T11:50:09;11.85;33.71
75010;DHT22;63564;46.840;18.336;2023-04-06T11:53:09;11.51;33.70
75010;DHT22;63564;46.840;18.336;2023-04-06T11:56:10;11.61;33.88
75010;DHT22;63564;46.840;18.336;2023-04-06T11:59:10;11.40;33.46
75010;DHT22;63564;46.840;18.336;2023-04-06T12:02:11;11.50;33.39
75010;DHT22;63564;46.840;18.336;2023-04-06T12:05:11;11.30;32.64
75010;DHT22;63564;46.840;18.336;2023-04-06T12:08:11;11.28;33.39
75010;DHT22;63564;46.840;18.336;2023-04-06T12:11:12;11.12;34.53
75010;DHT22;63564;46.840;18.336;2023-04-06T12:14:13;11.19;35.33
75010;DHT22;63564;46.840;18.336;2023-04-06T12:17:13;11.10;34.39
75010;DHT22;63564;46.840;18.336;2023-04-06T12:20:13;10.98;35.57
75010;DHT22;63564;46.840;18.336;2023-04-06T12:23:14;11.12;34.41
75010;DHT22;63564;46.840;18.336;2023-04-06T12:26:14;11.13;33.53
75010;DHT22;63564;46.840;18.336;2023-04-06T12:29:15;12.09;33.09
75010;DHT22;63564;46.840;18.336;2023-04-06T12:32:15;11.73;32.77
75010;DHT22;63564;46.840;18.336;2023-04-06T12:35:16;11.82;32.95
75010;DHT22;63564;46.840;18.336;2023-04-06T12:38:16;11.88;32.33
75010;DHT22;63564;46.840;18.336;2023-04-06T12:41:17;12.08;31.06
75010;DHT22;63564;46.840;18.336;2023-04-06T12:44:18;12.64;31.39
75010;DHT22;63564;46.840;18.336;2023-04-06T12:47:18;13.35;31.20
75010;DHT22;63564;46.840;18.336;2023-04-06T12:50:18;12.67;30.95
75010;DHT22;63564;46.840;18.336;2023-04-06T12:53:19;12.49;29.80
75010;DHT22;63564;46.840;18.336;2023-04-06T12:56:20;12.67;31.12
75010;DHT22;63564;46.840;18.336;2023-04-06T12:59:23;12.70;29.99
75010;DHT22;63564;46.840;18.336;2023-04-06T13:02:25;12.43;30.45
75010;DHT22;63564;46.840;18.336;2023-04-06T13:05:26;11.98;29.15
75010;DHT22;63564;46.840;18.336;2023-04-06T13:08:26;11.78;31.15
75010;DHT22;63564;46.840;18.336;2023-04-06T13:11:27;12.49;30.03
75010;DHT22;63564;46.840;18.336;2023-04-06T13:14:28;12.70;29.61
75010;DHT22;63564;46.840;18.336;2023-04-06T13:17:29;12.84;31.48
75010;DHT22;63564;46.840;18.336;2023-04-06T13:20:30;12.53;31.60
75010;DHT22;63564;46.840;18.336;2023-04-06T13:23:30;12.30;31.15
75010;DHT22;63564;46.840;18.336;2023-04-06T13:26:30;11.92;31.34
75010;DHT22;63564;46.840;18.336;2023-04-06T13:29:31;11.51;32.92
75010;DHT22;63564;46.840;18.336;2023-04-06T13:32:32;11.19;32.19
75010;DHT22;63564;46.840;18.336;2023-04-06T13:35:33;10.95;34.37
75010;DHT22;63564;46.840;18.336;2023-04-06T13:38:35;10.71;32.87
75010;DHT22;63564;46.840;18.336;2023-04-06T13:41:38;10.43;32.99
75010;DHT22;63564;46.840;18.336;2023-04-06T13:44:40;10.25;33.16
75010;DHT22;63564;46.840;18.336;2023-04-06T13:47:40;9.95;34.66
75010;DHT22;63564;46.840;18.336;2023-04-06T13:50:41;10.20;34.95
75010;DHT22;63564;46.840;18.336;2023-04-06T13:53:42;10.36;34.89
75010;DHT22;63564;46.840;18.336;2023-04-06T13:56:42;10.64;35.13
75010;DHT22;63564;46.840;18.336;2023-04-06T13:59:43;10.99;35.16
75010;DHT22;63564;46.840;18.336;2023-04-06T14:02:43;10.79;34.59
75010;DHT22;63564;46.840;18.336;2023-04-06T14:05:44;11.23;34.45
75010;DHT22;63564;46.840;18.336;2023-04-06T14:08:45;11.12;34.05
75010;DHT22;63564;46.840;18.336;2023-04-06T14:11:46;10.86;34.75
75010;DHT22;63564;46.840;18.336;2023-04-06T14:14:47;10.30;35.60
75010;DHT22;63564;46.840;18.336;2023-04-06T14:17:48;10.54;36.14
75010;DHT22;63564;46.840;18.336;2023-04-06T14:20:55;10.45;35.87
75010;DHT22;63564;46.840;18.336;2023-04-06T14:23:56;10.30;35.64
75010;DHT22;63564;46.840;18.336;2023-04-06T14:26:57;10.24;34.95
75010;DHT22;63564;46.840;18.336;2023-04-06T14:29:57;10.14;34.94
75010;DHT22;63564;46.840;18.336;2023-04-06T14:32:58;10.23;35.39
75010;DHT22;63564;46.840;18.336;2023-04-06T14:35:58;10.16;35.75
75010;DHT22;63564;46.840;18.336;2023-04-06T14:38:59;10.31;35.81
75010;DHT22;63564;46.840;18.336;2023-04-06T14:41:59;10.25;36.77
75010;DHT22;63564;46.840;18.336;2023-04-06T14:45:00;10.23;35.16
75010;DHT22;63564;46.840;18.336;2023-04-06T14:48:00;9.90;36.21
75010;DHT22;63564;46.840;18.336;2023-04-06T14:51:02;10.00;36.09
75010;DHT22;63564;46.840;18.336;2023-04-06T14:54:02;10.05;37.43
75010;DHT22;63564;46.840;18.336;2023-04-06T14:57:03;9.92;36.59
75010;DHT22;63564;46.840;18.336;2023-04-06T15:00:04;9.66;37.13
75010;DHT22;63564;46.840;18.336;2023-04-06T15:03:05;9.63;38.16
75010;DHT22;63564;46.840;18.336;2023-04-06T15:06:06;9.34;38.48
75010;DHT22;63564;46.840;18.336;2023-04-06T15:09:11;9.06;38.61
75010;DHT22;63564;46.840;18.336;2023-04-06T15:12:12;8.93;38.68
75010;DHT22;63564;46.840;18.336;2023-04-06T15:15:12;9.07;39.07
75010;DHT22;63564;46.840;18.336;2023-04-06T15:18:13;9.03;38.96
75010;DHT22;63564;46.840;18.336;2023-04-06T15:21:13;8.80;39.36
75010;DHT22;63564;46.840;18.336;2023-04-06T15:24:14;8.77;38.68
75010;DHT22;63564;46.840;18.336;2023-04-06T15:27:14;8.75;39.16
75010;DHT22;63564;46.840;18.336;2023-04-06T15:30:15;8.79;39.48
75010;DHT22;63564;46.840;18.336;2023-04-06T15:33:15;8.79;38.93
75010;DHT22;63564;46.840;18.336;2023-04-06T15:36:23;8.69;38.82
75010;DHT22;63564;46.840;18.336;2023-04-06T15:39:28;8.69;39.95
75010;DHT22;63564;46.840;18.336;2023-04-06T15:42:29;8.61;40.41
75010;DHT22;63564;46.840;18.336;2023-04-06T15:45:29;8.59;41.14
75010;DHT22;63564;46.840;18.336;2023-04-06T15:48:30;8.59;40.64
75010;DHT22;63564;46.840;18.336;2023-04-06T15:51:31;8.68;40.11
75010;DHT22;63564;46.840;18.336;2023-04-06T15:54:32;8.84;40.59
75010;DHT22;63564;46.840;18.336;2023-04-06T15:57:33;8.84;40.79
75010;DHT22;63564;46.840;18.336;2023-04-06T16:00:33;8.75;40.92
75010;DHT22;63564;46.840;18.336;2023-04-06T16:03:34;8.66;41.28
75010;DHT22;63564;46.840;18.336;2023-04-06T16:06:34;8.56;40.84
75010;DHT22;63564;46.840;18.336;2023-04-06T16:09:35;8.62;41.14
75010;DHT22;63564;46.840;18.336;2023-04-06T16:12:35;8.54;41.68
75010;DHT22;63564;46.840;18.336;2023-04-06T16:15:37;8.52;42.01
75010;DHT22;63564;46.840;18.336;2023-04-06T16:18:37;8.46;42.47
75010;DHT22;63564;46.840;18.336;2023-04-06T16:21:38;8.48;42.89
75010;DHT22;63564;46.840;18.336;2023-04-06T16:24:38;8.48;41.47
75010;DHT22;63564;46.840;18.336;2023-04-06T16:27:38;8.37;41.76
75010;DHT22;63564;46.840;18.336;2023-04-06T16:30:39;8.30;41.84
75010;DHT22;63564;46.840;18.336;2023-04-06T16:33:40;8.35;42.63
75010;DHT22;63564;46.840;18.336;2023-04-06T16:36:41;8.24;42.40
75010;DHT22;63564;46.840;18.336;2023-04-06T16:39:41;8.10;42.85
75010;DHT22;63564;46.840;18.336;2023-04-06T16:42:43;8.07;42.08
75010;DHT22;63564;46.840;18.336;2023-04-06T16:45:49;8.00;42.35
75010;DHT22;63564;46.840;18.336;2023-04-06T16:48:49;7.90;42.09
75010;DHT22;63564;46.840;18.336;2023-04-06T16:51:50;7.80;42.08
75010;DHT22;63564;46.840;18.336;2023-04-06T16:54:51;7.77;42.64
75010;DHT22;63564;46.840;18.336;2023-04-06T16:57:54;7.69;42.57
75010;DHT22;63564;46.840;18.336;2023-04-06T17:00:55;7.66;42.84
75010;DHT22;63564;46.840;18.336;2023-04-06T17:03:55;7.68;41.83
75010;DHT22;63564;46.840;18.336;2023-04-06T17:06:55;7.61;42.32
75010;DHT22;63564;46.840;18.336;2023-04-06T17:09:57;7.52;43.20
75010;DHT22;63564;46.840;18.336;2023-04-06T17:12:57;7.48;42.80
75010;DHT22;63564;46.840;18.336;2023-04-06T17:15:59;7.45;42.82
75010;DHT22;63564;46.840;18.336;2023-04-06T17:19:00;7.42;42.32
75010;DHT22;63564;46.840;18.336;2023-04-06T17:22:01;7.38;43.16
75010;DHT22;63564;46.840;18.336;2023-04-06T17:25:01;7.30;43.37
75010;DHT22;63564;46.840;18.336;2023-04-06T17:28:04;7.34;43.34
75010;DHT22;63564;46.840;18.336;2023-04-06T17:31:08;7.25;43.71
75010;DHT22;63564;46.840;18.336;2023-04-06T17:34:09;7.17;44.58
75010;DHT22;63564;46.840;18.336;2023-04-06T17:37:10;7.17;44.54
75010;DHT22;63564;46.840;18.336;2023-04-06T17:40:11;7.10;44.51
75010;DHT22;63564;46.840;18.336;2023-04-06T17:43:11;6.99;45.55
75010;DHT22;63564;46.840;18.336;2023-04-06T17:46:11;6.82;46.46
75010;DHT22;63564;46.840;18.336;2023-04-06T17:49:12;6.73;47.38
75010;DHT22;63564;46.840;18.336;2023-04-06T17:52:12;6.48;49.72
75010;DHT22;63564;46.840;18.336;2023-04-06T17:55:12;6.38;50.14
75010;DHT22;63564;46.840;18.336;2023-04-06T17:58:13;6.29;50.82
75010;DHT22;63564;46.840;18.336;2023-04-06T18:01:14;6.14;51.33
75010;DHT22;63564;46.840;18.336;2023-04-06T18:04:15;6.25;50.99
75010;DHT22;63564;46.840;18.336;2023-04-06T18:07:15;6.18;51.36
75010;DHT22;63564;46.840;18.336;2023-04-06T18:10:16;6.14;51.40
75010;DHT22;63564;46.840;18.336;2023-04-06T18:13:16;6.11;52.01
75010;DHT22;63564;46.840;18.336;2023-04-06T18:16:17;6.14;52.43
75010;DHT22;63564;46.840;18.336;2023-04-06T18:19:20;6.15;51.88
75010;DHT22;63564;46.840;18.336;2023-04-06T18:22:20;6.13;51.60
75010;DHT22;63564;46.840;18.336;2023-04-06T18:25:21;6.03;52.46
75010;DHT22;63564;46.840;18.336;2023-04-06T18:28:22;6.01;52.57
75010;DHT22;63564;46.840;18.336;2023-04-06T18:31:23;6.07;52.47
75010;DHT22;63564;46.840;18.336;2023-04-06T18:34:23;5.96;53.48
75010;DHT22;63564;46.840;18.336;2023-04-06T18:37:24;5.86;53.75
75010;DHT22;63564;46.840;18.336;2023-04-06T18:40:35;5.81;54.87
75010;DHT22;63564;46.840;18.336;2023-04-06T18:43:36;5.81;54.91
75010;DHT22;63564;46.840;18.336;2023-04-06T18:46:37;5.81;54.60
75010;DHT22;63564;46.840;18.336;2023-04-06T18:49:38;5.83;54.96
75010;DHT22;63564;46.840;18.336;2023-04-06T18:52:39;5.70;56.14
75010;DHT22;63564;46.840;18.336;2023-04-06T18:55:40;5.66;56.67
75010;DHT22;63564;46.840;18.336;2023-04-06T18:58:41;5.63;57.08
75010;DHT22;63564;46.840;18.336;2023-04-06T19:01:41;5.52;58.04